createdAt,value
2018-06-28T08:46:48.297Z,24.27
2018-06-28T08:47:52.547Z,24.50
2018-06-28T08:48:57.153Z,24.34
2018-06-28T08:50:03.327Z,24.69
2018-06-28T08:51:07.747Z,24.76
2018-06-28T08:54:58.037Z,24.97
2018-06-28T08:56:01.869Z,25.02
2018-06-28T08:57:06.769Z,25.04
2018-06-28T08:58:11.471Z,25.13
2018-06-28T08:59:15.680Z,25.15
2018-06-28T09:00:19.506Z,25.17
2018-06-28T09:01:23.769Z,25.19
2018-06-28T09:02:27.683Z,25.22
2018-06-28T09:03:33.182Z,25.24
2018-06-28T09:04:38.383Z,25.23
2018-06-28T09:05:45.507Z,25.27
2018-06-28T09:06:49.604Z,25.26
2018-06-28T09:07:54.461Z,25.26
2018-06-28T09:08:58.276Z,25.27
2018-06-28T09:10:02.281Z,25.29
2018-06-28T09:11:07.333Z,25.30
2018-06-28T09:12:14.573Z,25.33
2018-06-28T09:13:18.433Z,25.27
2018-06-28T09:14:22.317Z,25.29
2018-06-28T09:15:29.849Z,25.38
2018-06-28T09:16:33.740Z,25.43
2018-06-28T09:17:37.901Z,25.45
2018-06-28T09:18:41.708Z,25.44
2018-06-28T09:19:45.519Z,25.42
2018-06-28T09:20:54.590Z,25.46
2018-06-28T09:22:03.313Z,25.48
2018-06-28T09:23:09.309Z,25.22
2018-06-28T09:24:16.732Z,25.27
2018-06-28T09:25:20.816Z,25.56
2018-06-28T09:32:38.080Z,25.56
2018-06-28T09:33:41.881Z,25.49
2018-06-28T09:34:45.710Z,25.22
2018-06-28T09:35:52.611Z,25.44
2018-06-28T09:36:58.107Z,25.46
2018-06-28T09:38:03.569Z,25.52
2018-06-28T09:39:08.004Z,25.56
2018-06-28T09:40:13.429Z,25.61
2018-06-28T09:41:23.529Z,25.64
2018-06-28T09:42:27.773Z,25.70
2018-06-28T09:43:31.602Z,25.75
2018-06-28T09:44:35.454Z,25.80
2018-06-28T09:45:41.263Z,25.82
2018-06-28T09:46:45.362Z,25.81
2018-06-28T09:47:49.668Z,25.81
2018-06-28T09:48:53.882Z,25.85
2018-06-28T09:49:57.669Z,25.85
2018-06-28T09:51:05.425Z,25.83
2018-06-28T09:52:09.388Z,25.81
2018-06-28T09:53:14.380Z,25.80
2018-06-28T09:54:18.561Z,25.76
2018-06-28T09:55:23.663Z,25.79
2018-06-28T09:56:31.283Z,25.82
2018-06-28T09:57:35.474Z,25.52
2018-06-28T09:58:39.357Z,25.85
2018-06-28T09:59:43.775Z,25.86
2018-06-28T10:00:48.626Z,25.85
2018-06-28T10:01:52.760Z,25.80
2018-06-28T10:02:56.665Z,25.80
2018-06-28T10:04:01.777Z,25.84
2018-06-28T10:05:06.127Z,25.86
2018-06-28T10:06:09.937Z,25.86
2018-06-28T10:07:15.030Z,25.87
2018-06-28T10:08:22.429Z,25.83
2018-06-28T10:09:27.199Z,25.83
2018-06-28T10:10:31.323Z,25.80
2018-06-28T10:11:39.614Z,25.83
2018-06-28T10:12:43.994Z,25.86
2018-06-28T10:13:47.792Z,25.88
2018-06-28T10:14:51.724Z,25.89
2018-06-28T10:15:56.393Z,25.91
2018-06-28T10:17:07.837Z,25.91
2018-06-28T10:18:13.495Z,25.94
2018-06-28T10:19:18.035Z,25.94
2018-06-28T10:20:22.772Z,25.95
2018-06-28T10:21:27.185Z,25.94
2018-06-28T10:22:31.649Z,25.93
2018-06-28T10:23:35.752Z,25.61
2018-06-28T10:24:41.202Z,25.38
2018-06-28T10:25:45.638Z,25.94
2018-06-28T10:26:49.828Z,25.94
2018-06-28T10:27:54.088Z,25.95
2018-06-28T10:28:59.512Z,25.96
2018-06-28T10:30:05.975Z,25.99
2018-06-28T10:31:10.590Z,26.01
2018-06-28T10:32:14.782Z,26.07
2018-06-28T10:33:20.189Z,26.09
2018-06-28T10:34:24.845Z,26.10
2018-06-28T10:35:29.433Z,26.07
2018-06-28T10:41:29.577Z,26.09
2018-06-28T10:42:34.383Z,26.09
2018-06-28T10:43:40.210Z,26.05
2018-06-28T10:44:49.250Z,26.08
2018-06-28T10:45:53.913Z,26.08
2018-06-28T10:46:57.758Z,25.39
2018-06-28T10:48:02.502Z,26.12
2018-06-28T10:52:24.370Z,25.94
2018-06-28T10:59:56.798Z,25.73
2018-06-28T11:03:13.121Z,25.63
2018-06-28T11:05:41.557Z,25.67
2018-06-28T19:08:41.969Z,25.21
2018-06-28T19:09:50.543Z,25.34
2018-06-28T19:11:00.805Z,25.34
2018-06-28T19:12:04.633Z,25.35
2018-06-28T19:13:10.636Z,25.35
2018-06-28T19:14:25.115Z,25.35
2018-06-28T19:25:14.427Z,25.36
2018-06-28T19:26:26.949Z,25.36
2018-06-28T19:36:01.384Z,25.36
2018-06-28T19:37:12.977Z,25.37
2018-06-28T20:35:42.739Z,25.56
